sensor_id;sensor_type;location;lat;lon;timestamp;P1;durP1;ratioP1;P2;durP2;ratioP2
27684;SDS011;46113;50.130;8.526;2024-03-07T00:00:15;23.73;;;12.15;;
27684;SDS011;46113;50.130;8.526;2024-03-07T00:02:44;22.08;;;12.80;;
27684;SDS011;46113;50.130;8.526;2024-03-07T00:05:12;24.05;;;12.73;;
27684;SDS011;46113;50.130;8.526;2024-03-07T00:07:42;24.40;;;12.75;;
27684;SDS011;46113;50.130;8.526;2024-03-07T00:10:09;23.13;;;13.57;;
27684;SDS011;46113;50.130;8.526;2024-03-07T00:12:36;21.05;;;12.88;;
27684;SDS011;46113;50.130;8.526;2024-03-07T00:15:05;21.65;;;12.40;;
27684;SDS011;46113;50.130;8.526;2024-03-07T00:17:33;22.95;;;12.15;;
27684;SDS011;46113;50.130;8.526;2024-03-07T00:20:01;21.58;;;12.65;;
27684;SDS011;46113;50.130;8.526;2024-03-07T00:22:30;27.55;;;13.18;;
27684;SDS011;46113;50.130;8.526;2024-03-07T00:24:57;20.85;;;12.75;;
27684;SDS011;46113;50.130;8.526;2024-03-07T00:27:25;22.02;;;12.68;;
27684;SDS011;46113;50.130;8.526;2024-03-07T00:29:52;23.85;;;13.70;;
27684;SDS011;46113;50.130;8.526;2024-03-07T00:32:20;25.48;;;12.82;;
27684;SDS011;46113;50.130;8.526;2024-03-07T00:34:47;24.83;;;12.30;;
27684;SDS011;46113;50.130;8.526;2024-03-07T00:37:15;23.90;;;12.05;;
27684;SDS011;46113;50.130;8.526;2024-03-07T00:39:42;22.98;;;12.30;;
27684;SDS011;46113;50.130;8.526;2024-03-07T00:42:09;21.35;;;11.63;;
27684;SDS011;46113;50.130;8.526;2024-03-07T00:44:36;24.35;;;12.05;;
27684;SDS011;46113;50.130;8.526;2024-03-07T00:47:03;19.52;;;11.25;;
27684;SDS011;46113;50.130;8.526;2024-03-07T00:49:30;24.17;;;11.90;;
27684;SDS011;46113;50.130;8.526;2024-03-07T00:51:58;21.55;;;10.95;;
27684;SDS011;46113;50.130;8.526;2024-03-07T00:54:25;17.90;;;11.23;;
27684;SDS011;46113;50.130;8.526;2024-03-07T00:56:52;23.95;;;11.65;;
27684;SDS011;46113;50.130;8.526;2024-03-07T00:59:19;16.10;;;10.68;;
27684;SDS011;46113;50.130;8.526;2024-03-07T01:01:46;18.38;;;11.45;;
27684;SDS011;46113;50.130;8.526;2024-03-07T01:04:15;23.13;;;10.77;;
27684;SDS011;46113;50.130;8.526;2024-03-07T01:06:42;18.13;;;10.45;;
27684;SDS011;46113;50.130;8.526;2024-03-07T01:09:09;17.77;;;12.00;;
27684;SDS011;46113;50.130;8.526;2024-03-07T01:11:44;18.77;;;11.60;;
27684;SDS011;46113;50.130;8.526;2024-03-07T01:14:14;20.95;;;11.60;;
27684;SDS011;46113;50.130;8.526;2024-03-07T01:16:41;20.55;;;11.73;;
27684;SDS011;46113;50.130;8.526;2024-03-07T01:19:08;17.92;;;10.95;;
27684;SDS011;46113;50.130;8.526;2024-03-07T01:21:35;17.05;;;9.77;;
27684;SDS011;46113;50.130;8.526;2024-03-07T01:24:04;21.85;;;10.32;;
27684;SDS011;46113;50.130;8.526;2024-03-07T01:26:32;20.83;;;11.43;;
27684;SDS011;46113;50.130;8.526;2024-03-07T01:29:02;20.70;;;10.68;;
27684;SDS011;46113;50.130;8.526;2024-03-07T01:31:29;18.13;;;10.95;;
27684;SDS011;46113;50.130;8.526;2024-03-07T01:33:55;20.10;;;12.50;;
27684;SDS011;46113;50.130;8.526;2024-03-07T01:36:22;18.30;;;11.30;;
27684;SDS011;46113;50.130;8.526;2024-03-07T01:38:49;17.45;;;10.52;;
27684;SDS011;46113;50.130;8.526;2024-03-07T01:41:16;24.58;;;12.43;;
27684;SDS011;46113;50.130;8.526;2024-03-07T01:43:42;18.92;;;10.98;;
27684;SDS011;46113;50.130;8.526;2024-03-07T01:46:10;17.52;;;10.43;;
27684;SDS011;46113;50.130;8.526;2024-03-07T01:48:37;19.90;;;12.20;;
27684;SDS011;46113;50.130;8.526;2024-03-07T01:51:04;24.52;;;11.73;;
27684;SDS011;46113;50.130;8.526;2024-03-07T01:53:32;20.20;;;12.32;;
27684;SDS011;46113;50.130;8.526;2024-03-07T01:56:00;23.70;;;11.88;;
27684;SDS011;46113;50.130;8.526;2024-03-07T01:58:29;19.52;;;11.20;;
27684;SDS011;46113;50.130;8.526;2024-03-07T02:00:58;18.35;;;10.35;;
27684;SDS011;46113;50.130;8.526;2024-03-07T02:03:25;19.13;;;11.43;;
27684;SDS011;46113;50.130;8.526;2024-03-07T02:05:52;17.80;;;10.52;;
27684;SDS011;46113;50.130;8.526;2024-03-07T02:08:19;17.60;;;10.73;;
27684;SDS011;46113;50.130;8.526;2024-03-07T02:10:46;19.73;;;11.05;;
27684;SDS011;46113;50.130;8.526;2024-03-07T02:13:17;22.85;;;11.88;;
27684;SDS011;46113;50.130;8.526;2024-03-07T02:15:44;21.23;;;12.40;;
27684;SDS011;46113;50.130;8.526;2024-03-07T02:18:11;19.95;;;10.10;;
27684;SDS011;46113;50.130;8.526;2024-03-07T02:20:42;18.98;;;10.85;;
27684;SDS011;46113;50.130;8.526;2024-03-07T02:23:10;19.05;;;11.60;;
27684;SDS011;46113;50.130;8.526;2024-03-07T02:25:37;19.35;;;10.35;;
27684;SDS011;46113;50.130;8.526;2024-03-07T02:28:04;20.58;;;11.95;;
27684;SDS011;46113;50.130;8.526;2024-03-07T02:30:31;23.65;;;11.50;;
27684;SDS011;46113;50.130;8.526;2024-03-07T02:32:58;21.42;;;10.77;;
27684;SDS011;46113;50.130;8.526;2024-03-07T02:35:33;18.92;;;12.00;;
27684;SDS011;46113;50.130;8.526;2024-03-07T02:38:03;21.48;;;11.10;;
27684;SDS011;46113;50.130;8.526;2024-03-07T02:40:30;20.13;;;11.93;;
27684;SDS011;46113;50.130;8.526;2024-03-07T02:42:57;23.75;;;12.10;;
27684;SDS011;46113;50.130;8.526;2024-03-07T02:45:24;20.25;;;11.70;;
27684;SDS011;46113;50.130;8.526;2024-03-07T02:47:51;18.65;;;10.82;;
27684;SDS011;46113;50.130;8.526;2024-03-07T02:50:20;21.73;;;11.90;;
27684;SDS011;46113;50.130;8.526;2024-03-07T02:52:49;19.90;;;11.40;;
27684;SDS011;46113;50.130;8.526;2024-03-07T02:55:16;15.38;;;10.25;;
27684;SDS011;46113;50.130;8.526;2024-03-07T02:57:43;22.98;;;12.23;;
27684;SDS011;46113;50.130;8.526;2024-03-07T03:00:10;21.20;;;13.18;;
27684;SDS011;46113;50.130;8.526;2024-03-07T03:02:46;19.30;;;11.82;;
27684;SDS011;46113;50.130;8.526;2024-03-07T03:05:17;22.23;;;10.95;;
27684;SDS011;46113;50.130;8.526;2024-03-07T03:07:45;20.92;;;10.98;;
27684;SDS011;46113;50.130;8.526;2024-03-07T03:10:22;21.67;;;11.52;;
27684;SDS011;46113;50.130;8.526;2024-03-07T03:12:54;23.63;;;12.05;;
27684;SDS011;46113;50.130;8.526;2024-03-07T03:15:21;23.58;;;11.63;;
27684;SDS011;46113;50.130;8.526;2024-03-07T03:17:48;26.40;;;11.75;;
27684;SDS011;46113;50.130;8.526;2024-03-07T03:20:15;20.92;;;12.10;;
27684;SDS011;46113;50.130;8.526;2024-03-07T03:22:52;24.23;;;12.20;;
27684;SDS011;46113;50.130;8.526;2024-03-07T03:25:39;24.73;;;11.10;;
27684;SDS011;46113;50.130;8.526;2024-03-07T03:28:08;18.27;;;10.65;;
27684;SDS011;46113;50.130;8.526;2024-03-07T03:30:37;20.65;;;12.52;;
27684;SDS011;46113;50.130;8.526;2024-03-07T03:33:05;19.25;;;11.68;;
27684;SDS011;46113;50.130;8.526;2024-03-07T03:35:36;22.02;;;11.50;;
27684;SDS011;46113;50.130;8.526;2024-03-07T03:38:03;20.23;;;11.68;;
27684;SDS011;46113;50.130;8.526;2024-03-07T03:40:30;25.77;;;12.93;;
27684;SDS011;46113;50.130;8.526;2024-03-07T03:42:58;20.55;;;11.85;;
27684;SDS011;46113;50.130;8.526;2024-03-07T03:45:25;23.25;;;12.88;;
27684;SDS011;46113;50.130;8.526;2024-03-07T03:47:52;21.50;;;11.27;;
27684;SDS011;46113;50.130;8.526;2024-03-07T03:50:20;25.88;;;13.02;;
27684;SDS011;46113;50.130;8.526;2024-03-07T03:52:50;24.30;;;13.40;;
27684;SDS011;46113;50.130;8.526;2024-03-07T03:55:18;21.65;;;11.75;;
27684;SDS011;46113;50.130;8.526;2024-03-07T03:57:45;23.75;;;12.30;;
27684;SDS011;46113;50.130;8.526;2024-03-07T04:00:13;21.50;;;12.73;;
27684;SDS011;46113;50.130;8.526;2024-03-07T04:02:41;21.80;;;12.30;;
27684;SDS011;46113;50.130;8.526;2024-03-07T04:05:16;23.08;;;12.23;;
27684;SDS011;46113;50.130;8.526;2024-03-07T04:07:44;21.10;;;11.60;;
27684;SDS011;46113;50.130;8.526;2024-03-07T04:10:12;21.35;;;12.15;;
27684;SDS011;46113;50.130;8.526;2024-03-07T04:12:41;22.95;;;13.00;;
27684;SDS011;46113;50.130;8.526;2024-03-07T04:15:09;22.90;;;12.05;;
27684;SDS011;46113;50.130;8.526;2024-03-07T04:17:40;26.75;;;12.60;;
27684;SDS011;46113;50.130;8.526;2024-03-07T04:20:07;22.23;;;12.27;;
27684;SDS011;46113;50.130;8.526;2024-03-07T04:22:37;25.63;;;13.27;;
27684;SDS011;46113;50.130;8.526;2024-03-07T04:25:07;23.00;;;12.35;;
27684;SDS011;46113;50.130;8.526;2024-03-07T04:27:34;23.05;;;13.45;;
27684;SDS011;46113;50.130;8.526;2024-03-07T04:30:03;27.98;;;13.48;;
27684;SDS011;46113;50.130;8.526;2024-03-07T04:32:31;21.23;;;11.90;;
27684;SDS011;46113;50.130;8.526;2024-03-07T04:34:58;21.88;;;13.75;;
27684;SDS011;46113;50.130;8.526;2024-03-07T04:37:25;24.25;;;12.85;;
27684;SDS011;46113;50.130;8.526;2024-03-07T04:39:53;27.63;;;13.68;;
27684;SDS011;46113;50.130;8.526;2024-03-07T04:42:20;21.77;;;11.02;;
27684;SDS011;46113;50.130;8.526;2024-03-07T04:44:47;20.30;;;12.35;;
27684;SDS011;46113;50.130;8.526;2024-03-07T04:47:14;21.10;;;11.75;;
27684;SDS011;46113;50.130;8.526;2024-03-07T04:49:40;19.58;;;12.43;;
27684;SDS011;46113;50.130;8.526;2024-03-07T04:52:09;21.85;;;11.27;;
27684;SDS011;46113;50.130;8.526;2024-03-07T04:54:36;22.30;;;11.93;;
27684;SDS011;46113;50.130;8.526;2024-03-07T04:57:03;24.00;;;11.77;;
27684;SDS011;46113;50.130;8.526;2024-03-07T04:59:29;23.50;;;12.20;;
27684;SDS011;46113;50.130;8.526;2024-03-07T05:01:57;21.17;;;11.65;;
27684;SDS011;46113;50.130;8.526;2024-03-07T05:04:26;24.90;;;11.95;;
27684;SDS011;46113;50.130;8.526;2024-03-07T05:06:55;22.98;;;11.75;;
27684;SDS011;46113;50.130;8.526;2024-03-07T05:09:24;23.60;;;12.32;;
27684;SDS011;46113;50.130;8.526;2024-03-07T05:11:52;19.05;;;9.98;;
27684;SDS011;46113;50.130;8.526;2024-03-07T05:14:20;21.95;;;12.05;;
27684;SDS011;46113;50.130;8.526;2024-03-07T05:16:48;23.15;;;12.95;;
27684;SDS011;46113;50.130;8.526;2024-03-07T05:19:35;18.20;;;11.23;;
27684;SDS011;46113;50.130;8.526;2024-03-07T05:22:02;15.45;;;10.60;;
27684;SDS011;46113;50.130;8.526;2024-03-07T05:24:31;25.25;;;12.57;;
27684;SDS011;46113;50.130;8.526;2024-03-07T05:27:01;25.80;;;12.50;;
27684;SDS011;46113;50.130;8.526;2024-03-07T05:29:28;25.50;;;13.23;;
27684;SDS011;46113;50.130;8.526;2024-03-07T05:31:55;25.55;;;13.43;;
27684;SDS011;46113;50.130;8.526;2024-03-07T05:34:42;20.10;;;10.93;;
27684;SDS011;46113;50.130;8.526;2024-03-07T05:37:09;19.30;;;11.88;;
27684;SDS011;46113;50.130;8.526;2024-03-07T05:39:36;22.88;;;13.75;;
27684;SDS011;46113;50.130;8.526;2024-03-07T05:42:03;27.35;;;13.48;;
27684;SDS011;46113;50.130;8.526;2024-03-07T05:44:30;31.65;;;14.85;;
27684;SDS011;46113;50.130;8.526;2024-03-07T05:46:57;35.85;;;18.90;;
27684;SDS011;46113;50.130;8.526;2024-03-07T05:49:23;46.13;;;21.08;;
27684;SDS011;46113;50.130;8.526;2024-03-07T05:51:50;27.08;;;14.00;;
27684;SDS011;46113;50.130;8.526;2024-03-07T05:54:17;28.63;;;14.23;;
27684;SDS011;46113;50.130;8.526;2024-03-07T05:56:44;25.02;;;13.95;;
27684;SDS011;46113;50.130;8.526;2024-03-07T05:59:10;29.33;;;14.18;;
27684;SDS011;46113;50.130;8.526;2024-03-07T06:01:37;21.05;;;13.20;;
27684;SDS011;46113;50.130;8.526;2024-03-07T06:04:05;25.10;;;13.38;;
27684;SDS011;46113;50.130;8.526;2024-03-07T06:06:33;26.35;;;14.73;;
27684;SDS011;46113;50.130;8.526;2024-03-07T06:09:03;23.98;;;13.43;;
27684;SDS011;46113;50.130;8.526;2024-03-07T06:11:34;32.55;;;15.30;;
27684;SDS011;46113;50.130;8.526;2024-03-07T06:14:05;30.95;;;15.05;;
27684;SDS011;46113;50.130;8.526;2024-03-07T06:16:35;33.90;;;16.33;;
27684;SDS011;46113;50.130;8.526;2024-03-07T06:19:03;29.98;;;15.55;;
27684;SDS011;46113;50.130;8.526;2024-03-07T06:21:36;30.83;;;14.15;;
27684;SDS011;46113;50.130;8.526;2024-03-07T06:24:06;23.65;;;13.55;;
27684;SDS011;46113;50.130;8.526;2024-03-07T06:26:34;26.02;;;13.20;;
27684;SDS011;46113;50.130;8.526;2024-03-07T06:29:14;20.33;;;11.80;;
27684;SDS011;46113;50.130;8.526;2024-03-07T06:31:45;22.08;;;14.15;;
27684;SDS011;46113;50.130;8.526;2024-03-07T06:34:16;23.52;;;12.20;;
27684;SDS011;46113;50.130;8.526;2024-03-07T06:36:44;24.25;;;12.07;;
27684;SDS011;46113;50.130;8.526;2024-03-07T06:39:11;21.95;;;13.02;;
27684;SDS011;46113;50.130;8.526;2024-03-07T06:41:38;26.17;;;13.95;;
27684;SDS011;46113;50.130;8.526;2024-03-07T06:44:06;28.90;;;13.90;;
27684;SDS011;46113;50.130;8.526;2024-03-07T06:46:34;24.55;;;13.95;;
27684;SDS011;46113;50.130;8.526;2024-03-07T06:49:01;21.60;;;12.45;;
27684;SDS011;46113;50.130;8.526;2024-03-07T06:51:28;22.33;;;12.13;;
27684;SDS011;46113;50.130;8.526;2024-03-07T06:53:55;21.40;;;12.35;;
27684;SDS011;46113;50.130;8.526;2024-03-07T06:56:23;23.00;;;13.45;;
27684;SDS011;46113;50.130;8.526;2024-03-07T06:58:51;22.48;;;12.02;;
27684;SDS011;46113;50.130;8.526;2024-03-07T07:01:18;25.63;;;12.75;;
27684;SDS011;46113;50.130;8.526;2024-03-07T07:03:46;25.30;;;13.25;;
27684;SDS011;46113;50.130;8.526;2024-03-07T07:06:14;22.70;;;12.35;;
27684;SDS011;46113;50.130;8.526;2024-03-07T07:08:41;20.20;;;10.52;;
27684;SDS011;46113;50.130;8.526;2024-03-07T07:11:10;19.95;;;10.65;;
27684;SDS011;46113;50.130;8.526;2024-03-07T07:13:38;17.15;;;11.65;;
27684;SDS011;46113;50.130;8.526;2024-03-07T07:16:05;18.35;;;11.70;;
27684;SDS011;46113;50.130;8.526;2024-03-07T07:18:33;22.38;;;13.50;;
27684;SDS011;46113;50.130;8.526;2024-03-07T07:21:02;23.60;;;13.48;;
27684;SDS011;46113;50.130;8.526;2024-03-07T07:23:30;24.50;;;13.10;;
27684;SDS011;46113;50.130;8.526;2024-03-07T07:25:57;23.25;;;11.75;;
27684;SDS011;46113;50.130;8.526;2024-03-07T07:28:24;19.13;;;12.27;;
27684;SDS011;46113;50.130;8.526;2024-03-07T07:30:51;22.25;;;11.90;;
27684;SDS011;46113;50.130;8.526;2024-03-07T07:33:18;24.10;;;12.05;;
27684;SDS011;46113;50.130;8.526;2024-03-07T07:35:45;21.58;;;12.15;;
27684;SDS011;46113;50.130;8.526;2024-03-07T07:38:12;18.20;;;11.02;;
27684;SDS011;46113;50.130;8.526;2024-03-07T07:40:41;18.35;;;11.30;;
27684;SDS011;46113;50.130;8.526;2024-03-07T07:43:09;22.52;;;12.25;;
27684;SDS011;46113;50.130;8.526;2024-03-07T07:45:47;18.35;;;10.90;;
27684;SDS011;46113;50.130;8.526;2024-03-07T07:48:14;20.83;;;11.77;;
27684;SDS011;46113;50.130;8.526;2024-03-07T07:50:43;21.95;;;12.70;;
27684;SDS011;46113;50.130;8.526;2024-03-07T07:53:09;23.58;;;11.70;;
27684;SDS011;46113;50.130;8.526;2024-03-07T07:55:37;19.98;;;11.63;;
27684;SDS011;46113;50.130;8.526;2024-03-07T07:58:04;26.73;;;13.52;;
27684;SDS011;46113;50.130;8.526;2024-03-07T08:00:30;20.40;;;11.65;;
27684;SDS011;46113;50.130;8.526;2024-03-07T08:03:02;22.48;;;11.98;;
27684;SDS011;46113;50.130;8.526;2024-03-07T08:05:33;21.95;;;12.15;;
27684;SDS011;46113;50.130;8.526;2024-03-07T08:08:03;20.27;;;11.85;;
27684;SDS011;46113;50.130;8.526;2024-03-07T08:10:33;20.15;;;11.50;;
27684;SDS011;46113;50.130;8.526;2024-03-07T08:13:02;24.35;;;12.60;;
27684;SDS011;46113;50.130;8.526;2024-03-07T08:15:30;21.77;;;13.02;;
27684;SDS011;46113;50.130;8.526;2024-03-07T08:17:57;19.55;;;12.10;;
27684;SDS011;46113;50.130;8.526;2024-03-07T08:20:26;22.95;;;12.38;;
27684;SDS011;46113;50.130;8.526;2024-03-07T08:22:54;24.08;;;13.10;;
27684;SDS011;46113;50.130;8.526;2024-03-07T08:25:25;22.63;;;13.27;;
27684;SDS011;46113;50.130;8.526;2024-03-07T08:27:54;21.80;;;12.48;;
27684;SDS011;46113;50.130;8.526;2024-03-07T08:30:23;20.40;;;13.43;;
27684;SDS011;46113;50.130;8.526;2024-03-07T08:32:54;24.65;;;14.95;;
27684;SDS011;46113;50.130;8.526;2024-03-07T08:35:22;20.30;;;12.05;;
27684;SDS011;46113;50.130;8.526;2024-03-07T08:37:53;24.65;;;12.70;;
27684;SDS011;46113;50.130;8.526;2024-03-07T08:40:26;21.88;;;12.52;;
27684;SDS011;46113;50.130;8.526;2024-03-07T08:42:57;24.33;;;13.00;;
27684;SDS011;46113;50.130;8.526;2024-03-07T08:45:25;23.38;;;14.02;;
27684;SDS011;46113;50.130;8.526;2024-03-07T08:47:53;22.02;;;12.20;;
27684;SDS011;46113;50.130;8.526;2024-03-07T08:50:21;19.08;;;11.38;;
27684;SDS011;46113;50.130;8.526;2024-03-07T08:52:49;22.50;;;13.13;;
27684;SDS011;46113;50.130;8.526;2024-03-07T08:55:18;18.90;;;11.63;;
27684;SDS011;46113;50.130;8.526;2024-03-07T08:57:46;19.77;;;10.50;;
27684;SDS011;46113;50.130;8.526;2024-03-07T09:00:15;21.40;;;11.52;;
27684;SDS011;46113;50.130;8.526;2024-03-07T09:02:50;22.83;;;13.43;;
27684;SDS011;46113;50.130;8.526;2024-03-07T09:05:21;20.98;;;11.65;;
27684;SDS011;46113;50.130;8.526;2024-03-07T09:07:53;16.23;;;11.85;;
27684;SDS011;46113;50.130;8.526;2024-03-07T09:10:21;17.65;;;10.98;;
27684;SDS011;46113;50.130;8.526;2024-03-07T09:12:51;16.50;;;10.88;;
27684;SDS011;46113;50.130;8.526;2024-03-07T09:15:19;17.88;;;11.18;;
27684;SDS011;46113;50.130;8.526;2024-03-07T09:17:49;19.45;;;10.43;;
27684;SDS011;46113;50.130;8.526;2024-03-07T09:20:16;21.88;;;11.23;;
27684;SDS011;46113;50.130;8.526;2024-03-07T09:22:45;18.17;;;10.32;;
27684;SDS011;46113;50.130;8.526;2024-03-07T09:25:14;18.58;;;11.52;;
27684;SDS011;46113;50.130;8.526;2024-03-07T09:27:40;20.42;;;11.40;;
27684;SDS011;46113;50.130;8.526;2024-03-07T09:30:07;16.30;;;10.10;;
27684;SDS011;46113;50.130;8.526;2024-03-07T09:32:39;14.45;;;9.10;;
27684;SDS011;46113;50.130;8.526;2024-03-07T09:35:07;19.08;;;10.95;;
27684;SDS011;46113;50.130;8.526;2024-03-07T09:37:41;16.75;;;9.80;;
27684;SDS011;46113;50.130;8.526;2024-03-07T09:40:10;19.30;;;10.77;;
27684;SDS011;46113;50.130;8.526;2024-03-07T09:42:43;18.50;;;10.68;;
27684;SDS011;46113;50.130;8.526;2024-03-07T09:45:13;19.15;;;9.95;;
27684;SDS011;46113;50.130;8.526;2024-03-07T09:47:44;15.93;;;9.43;;
27684;SDS011;46113;50.130;8.526;2024-03-07T09:50:14;12.77;;;8.65;;
27684;SDS011;46113;50.130;8.526;2024-03-07T09:52:54;16.95;;;9.85;;
27684;SDS011;46113;50.130;8.526;2024-03-07T09:55:22;13.55;;;9.02;;
27684;SDS011;46113;50.130;8.526;2024-03-07T09:57:53;16.08;;;9.40;;
27684;SDS011;46113;50.130;8.526;2024-03-07T10:00:24;11.25;;;7.70;;
27684;SDS011;46113;50.130;8.526;2024-03-07T10:02:56;17.38;;;8.20;;
27684;SDS011;46113;50.130;8.526;2024-03-07T10:05:28;13.20;;;8.27;;
27684;SDS011;46113;50.130;8.526;2024-03-07T10:07:56;17.60;;;9.35;;
27684;SDS011;46113;50.130;8.526;2024-03-07T10:10:23;17.83;;;7.95;;
27684;SDS011;46113;50.130;8.526;2024-03-07T10:12:50;15.27;;;7.60;;
27684;SDS011;46113;50.130;8.526;2024-03-07T10:15:20;11.43;;;7.93;;
27684;SDS011;46113;50.130;8.526;2024-03-07T10:17:46;16.67;;;7.80;;
27684;SDS011;46113;50.130;8.526;2024-03-07T10:20:17;12.60;;;7.45;;
27684;SDS011;46113;50.130;8.526;2024-03-07T10:22:47;12.95;;;6.88;;
27684;SDS011;46113;50.130;8.526;2024-03-07T10:25:18;11.70;;;6.68;;
27684;SDS011;46113;50.130;8.526;2024-03-07T10:27:50;11.10;;;6.80;;
27684;SDS011;46113;50.130;8.526;2024-03-07T10:30:17;8.82;;;6.25;;
27684;SDS011;46113;50.130;8.526;2024-03-07T10:32:59;11.52;;;6.75;;
27684;SDS011;46113;50.130;8.526;2024-03-07T10:35:28;9.05;;;5.90;;
27684;SDS011;46113;50.130;8.526;2024-03-07T10:37:57;11.13;;;5.72;;
27684;SDS011;46113;50.130;8.526;2024-03-07T10:40:28;11.18;;;6.78;;
27684;SDS011;46113;50.130;8.526;2024-03-07T10:42:56;13.32;;;6.70;;
27684;SDS011;46113;50.130;8.526;2024-03-07T10:45:25;11.20;;;6.93;;
27684;SDS011;46113;50.130;8.526;2024-03-07T10:47:55;10.05;;;6.07;;
27684;SDS011;46113;50.130;8.526;2024-03-07T10:58:57;11.63;;;6.65;;
27684;SDS011;46113;50.130;8.526;2024-03-07T11:01:39;10.55;;;6.57;;
27684;SDS011;46113;50.130;8.526;2024-03-07T11:04:09;12.00;;;6.25;;
27684;SDS011;46113;50.130;8.526;2024-03-07T11:06:41;11.10;;;7.05;;
27684;SDS011;46113;50.130;8.526;2024-03-07T11:09:08;13.20;;;7.60;;
27684;SDS011;46113;50.130;8.526;2024-03-07T11:11:38;11.70;;;6.75;;
27684;SDS011;46113;50.130;8.526;2024-03-07T11:14:10;11.45;;;6.55;;
27684;SDS011;46113;50.130;8.526;2024-03-07T11:16:40;10.40;;;6.30;;
27684;SDS011;46113;50.130;8.526;2024-03-07T11:19:18;9.88;;;6.00;;
27684;SDS011;46113;50.130;8.526;2024-03-07T11:21:45;9.48;;;6.85;;
27684;SDS011;46113;50.130;8.526;2024-03-07T11:24:25;10.93;;;6.18;;
27684;SDS011;46113;50.130;8.526;2024-03-07T11:26:55;11.35;;;6.20;;
27684;SDS011;46113;50.130;8.526;2024-03-07T11:32:13;10.10;;;5.97;;
27684;SDS011;46113;50.130;8.526;2024-03-07T11:34:42;9.68;;;6.18;;
27684;SDS011;46113;50.130;8.526;2024-03-07T11:37:19;10.48;;;6.88;;
27684;SDS011;46113;50.130;8.526;2024-03-07T11:40:03;12.18;;;5.95;;
27684;SDS011;46113;50.130;8.526;2024-03-07T11:42:34;9.00;;;5.97;;
27684;SDS011;46113;50.130;8.526;2024-03-07T11:45:02;12.55;;;7.20;;
27684;SDS011;46113;50.130;8.526;2024-03-07T11:47:38;14.98;;;6.85;;
27684;SDS011;46113;50.130;8.526;2024-03-07T11:50:06;11.13;;;6.72;;
27684;SDS011;46113;50.130;8.526;2024-03-07T11:52:38;12.35;;;6.72;;
27684;SDS011;46113;50.130;8.526;2024-03-07T11:55:10;8.93;;;5.82;;
27684;SDS011;46113;50.130;8.526;2024-03-07T11:57:38;9.15;;;5.57;;
27684;SDS011;46113;50.130;8.526;2024-03-07T12:00:05;10.60;;;6.32;;
27684;SDS011;46113;50.130;8.526;2024-03-07T12:02:38;9.80;;;5.78;;
27684;SDS011;46113;50.130;8.526;2024-03-07T12:05:06;10.18;;;6.25;;
27684;SDS011;46113;50.130;8.526;2024-03-07T12:07:34;10.57;;;6.45;;
27684;SDS011;46113;50.130;8.526;2024-03-07T12:10:02;10.73;;;5.55;;
27684;SDS011;46113;50.130;8.526;2024-03-07T12:12:31;10.13;;;6.03;;
27684;SDS011;46113;50.130;8.526;2024-03-07T12:14:59;12.55;;;6.13;;
27684;SDS011;46113;50.130;8.526;2024-03-07T12:17:28;8.98;;;6.28;;
27684;SDS011;46113;50.130;8.526;2024-03-07T12:19:58;10.18;;;5.40;;
27684;SDS011;46113;50.130;8.526;2024-03-07T12:22:29;10.88;;;5.80;;
27684;SDS011;46113;50.130;8.526;2024-03-07T12:25:01;9.60;;;6.35;;
27684;SDS011;46113;50.130;8.526;2024-03-07T12:27:29;11.70;;;6.22;;
27684;SDS011;46113;50.130;8.526;2024-03-07T12:29:56;8.90;;;5.10;;
27684;SDS011;46113;50.130;8.526;2024-03-07T12:32:24;8.52;;;5.47;;
27684;SDS011;46113;50.130;8.526;2024-03-07T12:34:52;7.47;;;4.95;;
27684;SDS011;46113;50.130;8.526;2024-03-07T12:37:19;9.43;;;5.20;;
27684;SDS011;46113;50.130;8.526;2024-03-07T12:39:54;7.20;;;5.43;;
27684;SDS011;46113;50.130;8.526;2024-03-07T12:42:31;7.00;;;4.95;;
27684;SDS011;46113;50.130;8.526;2024-03-07T12:45:01;9.25;;;5.60;;
27684;SDS011;46113;50.130;8.526;2024-03-07T12:47:32;8.68;;;5.43;;
27684;SDS011;46113;50.130;8.526;2024-03-07T12:49:59;8.75;;;5.10;;
27684;SDS011;46113;50.130;8.526;2024-03-07T12:52:27;10.30;;;5.20;;
27684;SDS011;46113;50.130;8.526;2024-03-07T12:54:53;8.68;;;5.30;;
27684;SDS011;46113;50.130;8.526;2024-03-07T12:57:22;9.98;;;5.82;;
27684;SDS011;46113;50.130;8.526;2024-03-07T12:59:50;6.72;;;4.60;;
27684;SDS011;46113;50.130;8.526;2024-03-07T13:02:17;8.13;;;5.13;;
27684;SDS011;46113;50.130;8.526;2024-03-07T13:04:44;8.45;;;4.57;;
27684;SDS011;46113;50.130;8.526;2024-03-07T13:07:11;10.68;;;5.20;;
27684;SDS011;46113;50.130;8.526;2024-03-07T13:09:42;7.72;;;4.82;;
27684;SDS011;46113;50.130;8.526;2024-03-07T13:12:10;8.63;;;5.90;;
27684;SDS011;46113;50.130;8.526;2024-03-07T13:14:40;9.90;;;5.38;;
27684;SDS011;46113;50.130;8.526;2024-03-07T13:17:09;7.97;;;5.75;;
27684;SDS011;46113;50.130;8.526;2024-03-07T13:19:37;6.20;;;4.63;;
27684;SDS011;46113;50.130;8.526;2024-03-07T13:22:05;8.43;;;5.13;;
27684;SDS011;46113;50.130;8.526;2024-03-07T13:24:38;9.80;;;5.57;;
27684;SDS011;46113;50.130;8.526;2024-03-07T13:27:06;6.82;;;4.88;;
27684;SDS011;46113;50.130;8.526;2024-03-07T13:29:38;7.90;;;4.85;;
27684;SDS011;46113;50.130;8.526;2024-03-07T13:32:05;10.18;;;5.93;;
27684;SDS011;46113;50.130;8.526;2024-03-07T13:34:33;10.32;;;5.30;;
27684;SDS011;46113;50.130;8.526;2024-03-07T13:37:00;8.18;;;5.28;;
27684;SDS011;46113;50.130;8.526;2024-03-07T13:39:27;12.90;;;5.72;;
27684;SDS011;46113;50.130;8.526;2024-03-07T13:41:54;10.00;;;5.45;;
27684;SDS011;46113;50.130;8.526;2024-03-07T13:44:21;12.68;;;6.03;;
27684;SDS011;46113;50.130;8.526;2024-03-07T13:46:49;9.60;;;6.03;;
27684;SDS011;46113;50.130;8.526;2024-03-07T13:49:16;9.75;;;5.72;;
27684;SDS011;46113;50.130;8.526;2024-03-07T13:51:43;13.85;;;6.28;;
27684;SDS011;46113;50.130;8.526;2024-03-07T13:54:17;10.55;;;6.20;;
27684;SDS011;46113;50.130;8.526;2024-03-07T13:57:35;13.15;;;5.90;;
27684;SDS011;46113;50.130;8.526;2024-03-07T14:00:32;11.52;;;5.60;;
27684;SDS011;46113;50.130;8.526;2024-03-07T14:06:03;9.75;;;5.55;;
27684;SDS011;46113;50.130;8.526;2024-03-07T14:23:41;10.93;;;6.72;;
27684;SDS011;46113;50.130;8.526;2024-03-07T14:29:38;10.70;;;5.85;;
27684;SDS011;46113;50.130;8.526;2024-03-07T14:32:11;8.48;;;5.00;;
27684;SDS011;46113;50.130;8.526;2024-03-07T14:34:58;7.65;;;5.10;;
27684;SDS011;46113;50.130;8.526;2024-03-07T14:37:34;9.65;;;5.40;;
27684;SDS011;46113;50.130;8.526;2024-03-07T14:40:09;9.93;;;6.00;;
27684;SDS011;46113;50.130;8.526;2024-03-07T14:42:42;7.97;;;5.75;;
27684;SDS011;46113;50.130;8.526;2024-03-07T14:45:12;8.70;;;5.13;;
27684;SDS011;46113;50.130;8.526;2024-03-07T14:47:46;10.77;;;6.28;;
27684;SDS011;46113;50.130;8.526;2024-03-07T14:50:15;10.55;;;6.53;;
27684;SDS011;46113;50.130;8.526;2024-03-07T14:52:42;10.30;;;6.53;;
27684;SDS011;46113;50.130;8.526;2024-03-07T14:55:11;11.15;;;6.35;;
27684;SDS011;46113;50.130;8.526;2024-03-07T14:57:41;9.43;;;6.13;;
27684;SDS011;46113;50.130;8.526;2024-03-07T15:00:11;11.07;;;6.70;;
27684;SDS011;46113;50.130;8.526;2024-03-07T15:02:59;13.30;;;6.97;;
27684;SDS011;46113;50.130;8.526;2024-03-07T15:05:27;14.77;;;7.57;;
27684;SDS011;46113;50.130;8.526;2024-03-07T15:07:54;10.07;;;6.20;;
27684;SDS011;46113;50.130;8.526;2024-03-07T15:10:34;10.07;;;5.95;;
27684;SDS011;46113;50.130;8.526;2024-03-07T15:13:02;9.93;;;6.88;;